Date,TemperatureHighF,TemperatureAvgF,TemperatureLowF,DewpointHighF,DewpointAvgF,DewpointLowF,HumidityHigh,HumidityAvg,HumidityLow,PressureMaxIn,PressureMinIn,WindSpeedMaxMPH,WindSpeedAvgMPH,GustSpeedMaxMPH,PrecipitationSumIn
2013-1-1,40.2,36.6,27.4,39.4,34.1,23.2,97,91,83,30.24,30.02,15,2,15,0.07
2013-1-2,34.2,27.8,22.1,23.0,20.6,18.3,85,75,57,30.32,30.21,10,1,11,0.00
2013-1-3,40.7,30.0,21.0,27.6,22.8,18.0,89,75,55,30.47,30.28,9,1,10,0.00
2013-1-4,46.0,32.6,22.9,30.6,24.8,20.1,91,75,47,30.52,30.41,9,0,10,0.00
2013-1-5,45.4,36.3,25.9,33.2,27.5,22.3,88,72,50,30.43,30.27,9,0,13,0.00
2013-1-6,48.8,37.6,27.2,36.6,31.1,22.9,92,78,51,30.41,30.23,14,1,16,0.00
2013-1-7,49.2,32.9,21.7,29.2,23.7,19.0,90,71,42,30.49,30.25,7,0,7,0.01
2013-1-8,58.2,44.2,30.4,39.9,33.4,23.7,83,67,45,30.32,30.20,10,0,11,0.00
2013-1-9,54.4,50.8,48.1,51.2,47.4,39.7,94,88,69,30.40,30.24,9,1,10,0.38
2013-1-10,66.5,58.6,50.0,61.6,56.4,48.0,95,92,83,30.37,29.90,18,2,19,0.98
2013-1-11,67.5,59.9,54.0,60.5,52.7,47.9,93,78,50,30.04,29.91,22,1,22,0.05
2013-1-12,69.8,65.8,60.8,65.4,62.6,57.8,95,89,79,29.97,29.74,17,1,19,0.17
2013-1-13,69.6,41.0,28.5,63.1,37.8,23.7,93,89,78,30.30,29.73,25,3,25,2.96
2013-1-14,29.4,27.2,25.2,24.3,22.0,20.2,89,81,76,30.45,30.30,14,3,16,0.00
2013-1-15,30.3,28.1,24.9,27.9,24.7,21.0,91,87,82,30.32,30.08,14,2,14,0.20
2013-1-16,31.6,30.1,28.7,28.3,27.3,26.0,91,89,86,30.20,30.08,0,0,0,0.01
2013-1-17,44.7,35.2,28.8,35.0,29.3,25.1,92,79,65,30.50,30.14,19,3,21,0.01
2013-1-18,51.2,36.5,24.9,30.1,25.2,21.8,89,66,37,30.60,30.39,6,0,6,0.00
2013-1-19,57.8,46.7,34.9,34.2,30.6,27.3,76,55,36,30.36,30.16,13,2,20,0.00
2013-1-20,54.1,43.1,33.2,34.5,29.8,20.7,85,61,39,30.30,30.18,10,1,11,0.00
2013-1-21,36.3,30.4,24.5,20.7,17.5,13.1,75,59,41,30.38,30.21,17,2,17,0.00
2013-1-22,32.7,27.0,21.3,16.6,11.8,5.4,71,53,39,30.48,30.34,6,0,7,0.00
2013-1-23,54.9,38.9,24.1,37.3,25.5,13.9,83,59,46,30.40,30.18,8,0,10,0.00
2013-1-24,37.9,34.2,28.9,32.7,18.7,11.8,88,54,36,30.51,30.24,13,2,13,0.00
2013-1-25,37.2,33.8,29.3,33.1,28.1,17.3,92,80,49,30.28,30.07,12,1,13,0.36
2013-1-26,50.7,38.0,27.1,35.0,28.8,24.9,93,72,43,30.38,30.27,6,0,9,0.01
2013-1-27,57.2,47.0,36.1,44.5,38.0,28.1,84,71,62,30.32,30.15,10,0,14,0.00
2013-1-28,67.8,57.5,51.1,59.3,51.2,42.6,91,80,64,30.18,30.07,13,1,14,0.14
2013-1-29,70.8,64.1,56.9,62.3,58.1,53.5,91,81,69,30.08,29.48,24,3,31,0.02
2013-1-30,68.0,47.4,33.7,62.4,40.7,21.4,94,78,59,30.01,29.45,21,4,25,2.22
2013-1-31,51.2,37.1,27.6,33.3,25.6,18.1,91,64,40,30.35,30.01,22,3,24,0.01
2013-2-1,31.4,23.4,16.9,17.5,11.2,6.9,73,59,42,30.58,30.35,16,2,16,0.00
2013-2-2,48.9,36.0,23.3,30.9,24.7,15.3,78,64,45,30.35,30.13,11,1,14,0.01
2013-2-3,50.4,41.6,34.2,32.4,28.6,24.3,83,61,40,30.18,30.07,16,2,18,0.00
2013-2-4,56.2,43.7,32.9,40.5,32.8,25.2,80,66,40,30.14,29.92,11,1,11,0.00
2013-2-5,58.8,46.9,39.2,46.9,41.1,36.2,90,81,56,30.08,29.94,6,0,7,0.00
2013-2-6,61.2,47.0,36.4,38.8,33.9,30.0,93,64,34,30.25,30.08,9,1,10,0.01
2013-2-7,69.4,56.3,44.2,52.1,43.6,30.8,91,63,49,30.09,29.88,11,0,11,0.17
2013-2-8,54.7,41.5,32.2,52.2,36.3,28.2,93,82,69,30.35,29.90,15,4,17,0.32
2013-2-9,52.9,41.3,31.4,37.8,30.5,26.4,83,67,46,30.39,30.07,9,1,10,0.01
2013-2-10,56.6,52.2,47.9,53.7,45.1,35.8,93,78,56,30.08,29.77,15,1,20,0.53
2013-2-11,55.7,47.4,41.0,53.3,33.6,28.3,92,60,38,30.20,29.93,9,0,11,0.00
2013-2-12,51.8,44.2,33.3,37.3,33.4,29.5,88,67,50,30.18,29.81,8,0,9,0.03
2013-2-13,42.7,39.1,35.9,37.6,35.4,33.3,92,86,74,30.02,29.78,12,2,12,0.24
2013-2-14,62.8,46.5,34.3,40.3,34.5,31.0,97,67,32,30.05,29.99,11,1,12,0.01
2013-2-15,50.7,43.1,33.8,34.6,29.9,20.4,78,60,39,30.22,30.05,18,3,18,0.00
2013-2-16,37.9,30.4,24.9,20.8,17.4,12.7,78,59,37,30.27,30.20,14,2,15,0.00
2013-2-17,53.8,38.9,25.3,27.3,21.7,15.9,68,52,31,30.30,30.11,11,1,14,0.00
2013-2-18,60.9,48.5,40.3,47.5,38.2,25.4,97,69,45,30.11,29.77,27,3,27,0.96
2013-2-19,47.9,39.9,33.6,42.2,26.0,16.0,83,59,39,30.30,29.91,17,2,17,0.00
2013-2-20,34.4,30.7,25.7,19.4,15.9,12.6,65,54,45,30.40,30.23,8,1,11,0.00
2013-2-21,42.3,34.5,28.9,40.4,27.2,17.6,93,75,52,30.27,29.81,13,2,13,1.33
2013-2-22,44.1,40.8,35.1,41.3,37.2,31.0,94,87,77,30.09,29.86,9,0,9,0.01
2013-2-23,46.1,36.1,28.4,31.0,27.6,24.9,88,72,50,30.09,29.98,11,1,11,0.00
2013-2-24,58.7,41.3,27.9,30.5,26.2,24.4,88,59,31,30.17,29.98,9,1,10,0.00
2013-2-25,64.0,50.3,37.6,47.0,33.3,24.9,92,54,28,29.99,29.38,12,3,17,0.43
2013-2-26,50.6,44.2,38.9,48.7,39.3,31.9,93,83,70,29.78,29.35,17,3,19,0.19
2013-2-27,40.4,38.6,36.4,32.7,30.7,27.4,77,73,64,29.96,29.78,12,3,16,0.00
2013-2-28,39.1,36.5,33.9,32.3,28.0,24.7,89,71,62,30.12,29.95,11,2,17,0.00
2013-3-1,36.6,33.6,31.8,32.2,29.8,28.6,92,86,77,30.16,30.08,9,1,11,0.03
2013-3-2,32.9,30.7,29.8,29.3,25.1,18.6,90,80,61,30.25,30.13,14,3,16,0.04
2013-3-3,43.7,33.4,23.0,22.9,19.5,16.0,89,58,36,30.25,30.11,10,1,11,0.00
2013-3-4,66.7,50.5,34.5,43.2,30.3,21.3,62,47,30,30.12,29.76,15,2,17,0.00
2013-3-5,58.9,46.0,34.2,51.8,37.1,20.0,93,72,53,30.15,29.75,21,4,24,0.56
2013-3-6,41.1,35.1,29.1,26.8,23.8,20.9,85,63,55,30.37,30.15,20,4,22,0.00
2013-3-7,49.7,37.3,26.8,32.1,27.3,23.3,88,69,46,30.43,30.33,9,1,11,0.00
2013-3-8,66.0,45.5,29.0,34.1,27.6,23.3,85,55,20,30.44,30.23,8,1,9,0.00
2013-3-9,71.2,56.0,45.5,39.7,32.5,24.8,61,42,27,30.23,29.94,13,1,16,0.00
2013-3-10,67.5,57.7,50.2,54.7,45.1,37.4,94,65,46,29.98,29.73,21,2,21,1.27
2013-3-11,51.2,41.5,33.0,49.5,35.7,27.8,94,80,64,30.05,29.80,11,2,14,0.19
2013-3-12,54.1,40.0,28.7,30.7,27.3,20.1,90,64,34,30.21,30.04,13,1,14,0.00
2013-3-13,44.4,39.1,32.9,31.2,23.8,20.6,66,54,42,30.44,30.20,21,3,21,0.00
2013-3-14,55.7,41.1,26.6,30.9,24.9,20.1,77,55,33,30.46,30.17,9,0,11,0.00
2013-3-15,79.4,60.3,44.5,50.2,42.1,30.9,70,53,33,30.17,29.87,13,1,15,0.00
2013-3-16,76.9,64.8,54.0,54.1,49.1,44.0,75,58,43,29.92,29.83,16,2,17,0.00
2013-3-17,61.1,51.0,44.8,51.6,44.7,39.0,91,79,69,29.95,29.69,7,1,10,0.01
2013-3-18,64.1,53.3,41.4,57.8,48.2,38.4,94,83,71,30.04,29.66,19,2,23,2.12
2013-3-19,55.7,44.7,35.0,38.7,29.0,20.4,93,59,25,30.23,30.04,9,1,12,0.00
2013-3-20,50.8,42.3,32.5,33.5,27.6,14.1,77,57,26,30.24,30.06,18,2,19,0.00
2013-3-21,46.1,35.3,24.1,26.4,17.9,11.5,76,51,32,30.15,29.98,10,1,11,0.00
2013-3-22,50.7,42.0,34.4,41.6,31.8,23.9,91,69,49,30.03,29.93,7,1,9,0.10
2013-3-23,56.4,47.2,42.5,46.5,42.2,36.5,92,83,64,29.98,29.72,10,1,12,0.18
2013-3-24,49.3,44.0,35.2,47.7,38.7,24.0,94,82,63,29.89,29.49,21,3,29,0.38
2013-3-25,38.2,34.6,32.9,25.8,24.3,22.5,72,66,59,30.23,29.89,18,3,18,0.00
2013-3-26,42.5,35.3,29.2,28.7,26.3,24.3,88,70,51,30.38,30.23,12,2,13,0.00
2013-3-27,54.6,39.9,25.9,31.2,26.4,22.0,88,62,34,30.44,30.33,11,1,13,0.00
2013-3-28,67.3,50.8,36.7,36.5,31.8,27.6,74,50,28,30.39,30.26,11,0,11,0.00
2013-3-29,52.0,47.9,44.6,47.3,39.1,31.7,93,72,52,30.29,30.18,5,0,11,0.09
2013-3-30,53.7,48.0,40.1,52.0,46.0,38.2,97,93,86,30.21,29.94,6,0,7,0.31
2013-3-31,64.6,55.5,46.9,54.7,51.0,43.8,97,86,60,29.98,29.89,11,0,13,0.15
2013-4-1,61.7,49.9,41.9,44.3,39.8,29.2,93,71,42,30.16,29.94,12,2,13,0.01
2013-4-2,47.4,42.9,39.5,34.8,28.6,23.1,81,58,40,30.31,30.15,9,1,10,0.01
2013-4-3,53.3,46.1,37.9,33.0,24.9,20.6,75,45,31,30.30,30.16,12,2,13,0.00
2013-4-4,47.9,43.6,38.7,44.1,37.9,24.7,93,82,40,30.16,30.01,7,1,7,0.42
2013-4-5,68.6,51.6,35.6,44.6,38.8,33.5,94,67,34,30.18,30.06,9,1,12,0.01
2013-4-6,78.3,60.6,43.4,44.3,40.7,38.2,83,52,25,30.11,29.92,10,2,16,0.00
2013-4-7,74.2,64.2,58.2,55.4,49.3,42.4,70,59,47,30.04,29.93,11,1,13,0.00
2013-4-8,82.5,67.9,58.2,59.0,54.1,49.0,78,63,40,30.00,29.87,13,1,17,0.00
2013-4-9,81.6,70.6,63.4,65.4,60.8,55.2,81,72,55,30.03,29.88,14,1,16,0.00
2013-4-10,84.9,75.5,68.2,66.0,62.9,60.0,81,66,49,29.97,29.69,13,2,17,0.01
2013-4-11,72.9,55.3,44.2,63.8,52.4,40.3,94,90,69,29.79,29.63,12,1,15,2.95
2013-4-12,65.7,51.8,39.1,44.2,40.1,36.4,93,67,42,30.01,29.79,14,1,19,0.00
2013-4-13,71.6,54.3,38.9,44.3,38.0,32.9,80,57,31,30.13,29.95,7,0,7,0.00
2013-4-14,73.8,61.8,50.6,54.4,47.2,40.2,74,60,42,29.96,29.77,17,1,17,0.00
2013-4-15,85.9,70.2,55.8,60.7,56.4,50.7,86,64,39,29.94,29.84,12,1,13,0.00
2013-4-16,84.9,74.0,65.3,70.1,65.7,59.2,88,76,58,30.06,29.93,12,0,15,0.00
2013-4-17,91.0,76.6,66.7,69.6,65.7,63.7,92,71,46,30.09,29.86,12,1,13,0.00
2013-4-18,84.3,71.5,46.4,66.2,61.2,44.2,92,71,47,29.87,29.59,18,3,22,1.57
2013-4-19,51.9,45.2,41.2,44.2,34.3,30.1,92,66,48,30.14,29.77,15,1,20,0.00
2013-4-20,65.8,50.7,36.5,39.8,35.5,31.8,90,60,33,30.30,30.14,9,0,10,0.02
2013-4-21,70.5,55.7,41.0,38.3,34.9,30.5,76,49,26,30.39,30.22,10,0,14,0.00
2013-4-22,78.0,61.0,45.1,49.7,43.2,35.0,78,54,31,30.24,30.05,9,0,12,0.00
2013-4-23,77.3,65.0,53.7,60.0,54.1,45.1,86,69,50,30.08,29.91,14,1,20,0.00
2013-4-24,66.6,48.3,39.1,59.8,42.3,35.6,92,80,61,30.32,29.85,15,2,21,0.86
2013-4-25,70.0,50.5,34.4,43.6,37.9,32.0,93,66,33,30.42,30.30,7,0,9,0.01
2013-4-26,63.2,51.6,47.4,49.3,44.7,39.6,93,78,52,30.47,30.22,8,0,12,1.02
2013-4-27,63.9,56.0,49.9,62.1,54.2,48.0,95,94,90,30.33,29.88,10,0,13,1.28
2013-4-28,62.5,57.2,51.0,58.4,53.6,48.8,94,88,71,29.99,29.92,6,0,7,0.01
2013-4-29,81.2,62.1,45.9,59.8,52.3,44.0,95,73,41,30.03,29.89,10,0,11,0.00
2013-4-30,86.9,68.3,52.3,58.5,53.3,49.3,90,63,31,29.99,29.91,7,0,9,0.00
2013-5-1,82.3,69.6,58.8,64.0,57.5,51.3,82,66,46,30.08,29.97,7,0,11,0.00
2013-5-2,78.5,66.2,57.6,65.1,58.1,53.5,87,76,53,30.13,30.02,5,0,7,0.04
2013-5-3,70.0,55.0,40.3,59.2,50.0,38.4,97,84,66,30.02,29.84,17,1,17,2.08
2013-5-4,61.1,46.1,35.2,45.2,39.5,33.4,94,80,45,29.99,29.91,10,0,10,0.02
2013-5-5,63.7,51.8,45.2,47.9,44.8,41.7,92,78,54,29.94,29.87,12,1,14,0.01
2013-5-6,63.3,55.9,50.5,56.0,52.2,47.6,93,87,74,29.94,29.83,13,1,14,0.06
2013-5-7,73.4,62.1,53.1,59.3,54.3,51.2,94,78,49,30.02,29.93,11,0,12,0.00
2013-5-8,83.3,67.0,53.8,60.9,55.6,51.5,94,70,40,30.08,29.99,9,0,10,0.00
2013-5-9,84.6,71.0,58.5,64.1,58.9,54.6,88,67,44,30.08,29.94,14,1,16,0.00
2013-5-10,77.2,66.8,62.4,68.8,62.7,59.7,95,87,69,29.96,29.86,6,0,12,3.93
2013-5-11,70.5,63.1,56.9,63.3,53.6,43.3,93,73,50,30.11,29.93,12,1,16,0.33
2013-5-12,65.8,55.5,44.4,43.8,36.5,27.3,80,52,28,30.23,30.10,14,1,15,0.00
2013-5-13,77.5,59.0,41.9,48.0,42.6,37.6,90,59,28,30.29,30.14,9,0,11,0.00
2013-5-14,92.0,72.3,55.8,62.1,54.8,47.8,76,57,32,30.15,29.99,16,1,16,0.00
2013-5-15,89.6,73.3,62.1,56.8,53.4,46.5,74,52,25,30.10,29.94,14,1,17,0.00
2013-5-16,84.5,71.6,64.2,65.0,59.2,55.6,85,66,41,30.01,29.92,10,0,13,0.02
2013-5-17,76.0,68.0,63.4,69.2,64.1,58.0,94,87,73,29.97,29.89,6,0,6,0.47
2013-5-18,89.4,74.4,62.7,72.1,67.1,61.0,95,80,50,30.01,29.90,7,0,7,0.01
2013-5-19,92.7,79.8,70.8,72.0,69.1,66.1,92,72,43,29.97,29.86,14,1,14,0.00
2013-5-20,92.7,79.5,70.1,72.1,68.7,66.7,90,71,47,29.96,29.83,14,1,15,0.00
2013-5-21,82.4,69.8,63.5,70.6,65.0,60.6,94,86,61,30.01,29.80,19,0,19,2.85
2013-5-22,82.1,69.3,62.3,69.9,62.9,59.0,95,81,51,29.90,29.73,11,0,12,0.37
2013-5-23,79.8,69.7,60.4,61.8,57.8,53.6,91,68,49,30.12,29.88,12,1,15,0.00
2013-5-24,75.9,60.8,51.3,55.0,49.2,45.9,85,67,39,30.34,30.12,12,1,12,0.00
2013-5-25,83.0,63.2,49.4,55.9,49.9,45.8,90,65,33,30.34,30.14,6,0,6,0.00
2013-5-26,90.0,71.5,55.9,61.1,55.2,50.2,86,60,31,30.21,30.08,8,0,8,0.00
2013-5-27,89.2,72.5,60.2,67.1,59.6,55.3,85,66,36,30.10,29.96,12,1,15,0.00
2013-5-28,91.8,77.1,69.5,69.6,62.8,56.5,79,63,35,30.05,29.95,13,1,14,0.00
2013-5-29,91.3,77.4,64.5,68.2,62.7,55.8,77,62,38,30.06,29.93,11,0,13,0.00
2013-5-30,90.5,78.5,68.4,73.2,67.5,64.5,93,70,51,30.03,29.92,17,1,21,0.06
2013-5-31,86.5,74.2,64.1,74.8,69.2,62.0,95,85,63,30.02,29.85,12,1,17,1.65
2013-6-1,77.3,71.3,64.6,70.0,66.9,61.4,94,86,71,29.98,29.80,13,0,15,1.15
2013-6-2,78.7,70.7,66.2,66.6,63.3,58.1,94,79,54,29.96,29.90,10,1,12,0.01
2013-6-3,79.2,68.5,59.2,64.0,59.1,56.2,92,74,50,30.03,29.93,7,0,11,0.00
2013-6-4,86.5,71.2,57.9,64.3,59.6,54.4,89,69,42,30.04,29.93,4,0,5,0.00
2013-6-5,87.0,74.7,65.0,74.0,67.3,60.5,94,79,58,29.97,29.80,6,0,10,0.36
2013-6-6,80.3,72.9,66.8,68.9,65.9,62.7,94,80,60,29.82,29.75,10,0,11,0.12
2013-6-7,80.9,71.3,64.2,64.1,60.1,55.5,82,69,49,29.89,29.76,12,1,12,0.00
2013-6-8,86.5,71.7,58.8,63.3,57.7,52.2,93,65,32,30.00,29.87,6,0,7,0.00
2013-6-9,87.9,71.7,63.3,73.3,64.6,57.1,94,79,54,30.00,29.80,12,0,17,0.59
2013-6-10,92.1,77.0,65.1,72.5,67.0,63.3,95,74,43,29.91,29.84,14,1,19,0.01
2013-6-11,98.4,83.6,71.2,75.7,71.3,67.2,88,69,43,30.00,29.90,6,0,7,0.00
2013-6-12,96.7,84.9,73.2,78.3,73.0,69.4,89,69,48,30.03,29.87,12,0,15,0.00
2013-6-13,89.2,80.4,70.0,75.1,69.0,63.1,83,69,51,29.95,29.86,15,2,18,0.00
2013-6-14,85.6,73.8,62.3,64.8,60.7,56.8,90,66,42,30.05,29.93,12,0,13,0.00
2013-6-15,90.6,76.3,62.3,69.6,63.1,58.7,88,66,41,30.08,29.96,6,0,9,0.00
2013-6-16,89.1,77.2,69.5,73.5,67.9,64.1,85,74,53,30.03,29.94,9,0,9,0.00
2013-6-17,86.4,75.3,68.9,75.3,69.9,64.4,93,84,64,29.99,29.84,10,0,12,2.71
2013-6-18,86.7,74.1,66.3,70.3,66.7,64.3,95,79,51,29.96,29.81,10,1,12,1.40
2013-6-19,91.1,77.6,66.1,72.2,66.3,62.9,91,70,43,30.04,29.94,6,0,7,0.00
2013-6-20,93.5,80.1,67.8,73.2,68.4,64.8,91,70,43,30.12,30.03,5,0,6,0.00
2013-6-21,93.2,80.8,69.8,74.4,69.2,66.4,90,70,47,30.17,30.06,9,0,13,0.00
2013-6-22,92.6,79.9,69.6,73.4,68.7,65.9,89,70,47,30.14,30.02,6,0,10,0.00
2013-6-23,92.0,79.9,69.1,71.7,68.0,64.7,88,69,44,30.11,29.99,9,0,9,0.00
2013-6-24,94.7,82.1,72.1,76.0,70.8,67.8,88,70,47,30.12,30.00,5,0,9,0.00
2013-6-25,94.4,82.1,73.4,78.1,71.6,67.9,89,72,52,30.06,29.92,12,0,12,0.00
2013-6-26,94.3,82.1,73.3,76.2,70.6,67.3,84,69,49,29.97,29.80,14,1,17,0.00
2013-6-27,97.7,85.6,77.4,76.2,70.0,62.7,81,62,35,29.87,29.79,11,0,13,0.00
2013-6-28,89.3,78.2,69.5,74.9,68.8,61.8,93,74,50,29.87,29.67,14,0,18,0.20
2013-6-29,88.5,77.3,67.1,65.7,61.3,57.6,84,60,37,29.74,29.64,12,1,15,0.00
2013-6-30,78.3,69.9,62.8,65.2,61.4,58.3,88,75,57,29.82,29.69,11,1,15,0.00
2013-7-1,71.2,66.9,64.2,67.3,63.5,61.5,94,89,78,29.91,29.80,10,0,13,0.72
2013-7-2,82.2,70.6,64.0,68.2,63.2,61.0,94,79,53,30.03,29.89,9,0,10,0.06
2013-7-3,85.7,70.7,59.8,66.7,61.7,57.5,93,75,43,30.10,30.01,7,0,7,0.00
2013-7-4,85.7,74.1,65.1,72.5,66.8,62.5,93,79,58,30.05,29.97,7,0,9,0.00
2013-7-5,86.0,73.9,66.7,72.2,67.3,64.3,93,81,59,30.08,29.98,9,0,9,0.01
2013-7-6,88.5,74.6,68.3,74.8,68.1,64.9,92,81,57,30.08,29.96,5,0,10,0.07
2013-7-7,91.0,77.7,67.7,75.3,69.8,65.6,94,78,53,30.10,30.01,5,0,6,0.15
2013-7-8,92.8,80.5,70.3,75.9,71.6,67.9,93,76,52,30.14,30.05,6,0,6,0.00
2013-7-9,97.4,83.3,72.2,76.5,72.3,69.4,92,72,43,30.11,29.98,13,0,13,0.00
2013-7-10,94.4,83.1,76.1,77.7,73.0,70.1,89,72,51,30.02,29.87,9,0,9,0.05
2013-7-11,90.3,79.6,70.5,77.1,69.7,60.3,89,73,48,29.98,29.90,11,0,15,0.00
2013-7-12,86.6,74.1,63.0,66.9,61.0,57.6,84,66,43,30.03,29.96,11,0,13,0.00
2013-7-13,87.5,74.3,61.5,67.0,60.9,57.8,89,65,43,30.03,29.96,7,0,9,0.00
2013-7-14,85.9,74.2,69.3,73.1,68.4,62.4,93,83,58,30.09,29.99,7,0,9,0.67
2013-7-15,91.2,78.9,70.3,75.8,71.3,68.2,94,79,54,30.20,30.09,7,0,9,0.00
2013-7-16,94.8,80.9,70.7,76.3,71.6,67.7,92,75,47,30.28,30.19,4,0,4,0.00
2013-7-17,95.4,83.4,72.1,77.1,72.7,69.7,93,72,47,30.29,30.15,5,0,6,0.00
2013-7-18,92.2,78.4,70.5,79.5,72.6,67.9,93,83,57,30.18,30.04,14,0,14,0.24
2013-7-19,93.0,78.7,68.1,77.4,71.6,66.3,95,80,55,30.07,29.92,7,0,9,0.00
2013-7-20,94.3,80.2,70.6,76.6,71.7,67.4,91,77,53,29.96,29.82,11,0,15,0.37
2013-7-21,90.2,75.5,70.0,76.8,70.8,67.8,95,86,60,29.96,29.87,9,0,10,0.21
2013-7-22,86.8,74.8,67.5,78.5,70.9,65.7,95,88,72,29.93,29.83,12,0,16,1.45
2013-7-23,88.9,76.5,69.3,75.7,70.7,66.8,93,83,60,29.97,29.80,15,0,18,0.29
2013-7-24,86.9,76.3,69.4,74.5,69.1,63.5,94,80,60,29.97,29.82,9,0,11,0.01
2013-7-25,81.5,71.7,62.3,64.8,61.8,59.0,89,73,47,30.06,29.95,11,0,12,0.00
2013-7-26,83.3,72.2,61.3,66.6,62.8,59.0,93,74,48,30.07,29.94,10,0,11,0.01
2013-7-27,86.8,75.4,68.6,68.4,66.3,62.5,93,75,49,30.00,29.88,10,0,11,0.01
2013-7-28,78.8,69.3,62.2,62.7,58.9,55.2,83,71,47,30.08,29.95,3,0,3,0.00
2013-7-29,84.8,70.9,62.6,67.1,61.3,57.2,86,73,49,30.16,30.06,1,0,5,0.00
2013-7-30,76.2,71.6,66.7,73.5,67.3,60.9,93,86,71,30.16,30.02,2,0,4,0.75
2013-7-31,90.2,77.1,72.0,78.8,72.9,70.0,94,87,63,30.04,29.92,11,0,11,0.36
2013-8-1,84.0,75.5,69.6,71.9,68.8,65.8,95,81,58,30.05,29.96,12,0,12,0.01
2013-8-2,91.2,76.8,65.3,71.7,67.4,63.2,94,75,46,30.03,29.94,3,0,6,0.01
2013-8-3,77.8,73.8,71.3,74.4,70.4,66.4,94,89,83,30.07,29.92,7,0,7,0.43
2013-8-4,85.9,76.5,70.1,73.8,68.6,64.7,95,78,55,30.11,30.02,10,0,10,0.00
2013-8-5,76.8,72.0,68.1,72.6,66.5,60.8,94,83,71,30.07,29.92,2,0,3,0.20
2013-8-6,83.7,75.2,70.7,76.2,71.9,68.6,95,90,71,29.98,29.88,3,0,7,0.09
2013-8-7,93.8,79.9,72.5,79.9,73.4,70.4,94,82,52,29.95,29.85,6,0,7,0.01
2013-8-8,95.0,81.3,74.2,81.1,75.4,72.0,94,83,58,29.95,29.86,6,0,9,0.00
2013-8-9,93.7,82.3,74.3,78.7,74.5,71.4,92,78,54,30.00,29.91,6,0,7,0.00
2013-8-10,81.9,77.4,73.9,74.0,72.3,70.3,93,84,71,30.11,29.99,7,0,9,0.28
2013-8-11,86.5,76.9,72.2,77.2,72.8,70.2,94,87,68,30.13,30.03,5,0,5,0.22
2013-8-12,89.2,76.1,70.4,81.4,72.7,68.3,95,90,69,30.07,29.90,11,0,12,0.46
2013-8-13,83.3,75.6,69.8,73.9,69.7,66.0,95,83,63,30.00,29.92,13,0,14,0.01
2013-8-14,71.4,65.9,61.8,66.2,60.6,57.2,87,83,66,30.10,29.99,10,0,10,0.00
2013-8-15,79.3,66.7,55.2,63.0,57.4,52.3,91,73,52,30.09,30.00,9,0,11,0.00
2013-8-16,80.4,69.7,62.0,68.8,63.7,57.5,90,82,65,30.07,30.00,3,0,4,0.00
2013-8-17,82.8,72.1,67.4,71.2,66.3,62.5,93,83,61,30.10,30.02,4,0,6,0.04
2013-8-18,85.1,71.8,64.2,70.3,65.4,61.8,93,81,53,30.14,30.05,5,0,5,0.00
2013-8-19,86.9,73.9,64.1,72.0,66.9,61.9,95,80,56,30.11,30.01,7,0,7,0.00
2013-8-20,86.5,75.6,67.2,74.4,69.6,65.1,94,83,60,30.11,30.02,3,0,5,0.00
2013-8-21,92.0,78.8,69.0,75.8,70.2,66.1,94,77,48,30.14,30.04,7,0,7,0.01
2013-8-22,90.8,80.1,70.9,76.4,71.8,68.8,94,77,53,30.12,30.00,6,0,9,0.00
2013-8-23,93.8,79.0,70.2,76.3,70.8,67.9,94,77,48,30.07,29.98,7,0,12,0.00
2013-8-24,93.2,79.3,69.8,75.8,70.7,67.4,92,77,49,30.15,30.04,4,0,6,0.00
2013-8-25,90.3,78.4,71.0,76.5,70.9,67.2,92,79,58,30.26,30.14,6,0,7,0.00
2013-8-26,91.8,78.1,68.6,74.6,69.0,65.7,91,75,50,30.26,30.11,4,0,7,0.00
2013-8-27,89.4,76.8,65.9,73.1,67.1,61.9,89,73,52,30.15,30.03,6,0,10,0.00
2013-8-28,92.3,78.6,67.9,73.2,68.7,65.1,92,74,48,30.08,30.00,9,0,9,0.00
2013-8-29,93.8,81.3,70.2,75.4,70.6,66.6,89,72,48,30.05,29.95,9,0,9,0.00
2013-8-30,94.8,82.4,71.7,75.2,71.3,67.6,92,71,44,29.99,29.87,8,0,8,0.00
2013-8-31,97.6,84.0,73.1,78.0,71.9,69.0,87,69,44,29.91,29.79,6,0,6,0.00
2013-9-1,78.8,74.8,68.6,72.3,69.4,66.2,94,83,78,29.97,29.79,9,0,12,2.45
2013-9-2,91.2,76.4,69.4,77.8,71.7,67.9,95,86,61,29.91,29.83,9,0,11,0.00
2013-9-3,85.2,74.2,65.5,69.4,64.8,60.9,93,75,46,30.03,29.90,10,0,10,0.01
2013-9-4,84.8,72.4,63.5,66.9,63.1,61.1,93,75,49,30.14,30.02,7,0,9,0.00
2013-9-5,86.8,72.6,61.7,68.3,63.5,59.3,93,75,50,30.17,30.10,8,0,10,0.00
2013-9-6,90.9,75.2,64.3,71.4,65.8,61.6,92,75,47,30.15,30.04,2,0,5,0.00
2013-9-7,92.3,77.1,65.0,73.2,67.8,62.6,93,75,45,30.07,29.96,5,0,7,0.00
2013-9-8,96.2,80.1,67.9,76.6,70.2,65.2,92,74,45,29.99,29.88,5,0,5,0.00
2013-9-9,94.8,81.0,72.0,75.8,71.1,68.6,92,73,48,30.02,29.92,6,0,9,0.05
2013-9-10,94.7,78.3,71.3,77.8,71.2,67.7,90,80,51,30.12,30.01,9,0,9,0.05
2013-9-11,92.5,77.5,72.3,77.8,71.7,69.6,92,83,58,30.17,30.05,2,0,5,0.01
2013-9-12,91.2,78.0,70.5,74.1,70.4,67.1,93,79,54,30.06,29.92,9,0,10,0.18
2013-9-13,79.0,69.4,59.6,69.8,58.5,52.8,93,70,43,30.03,29.95,12,0,14,0.01
2013-9-14,76.5,61.8,50.9,57.1,51.6,48.0,91,71,44,30.12,30.02,7,0,10,0.00
2013-9-15,86.3,66.5,51.5,60.4,54.8,49.0,93,70,34,30.11,30.05,6,0,6,0.00
2013-9-16,84.9,70.6,59.2,68.1,61.1,55.8,90,74,43,30.16,30.08,8,0,11,0.00
2013-9-17,88.2,74.0,64.3,69.8,65.1,61.6,91,75,49,30.17,30.05,4,0,5,0.00
2013-9-18,87.2,75.1,68.9,74.5,68.5,65.2,89,80,62,30.12,30.02,8,0,9,0.00
2013-9-19,90.7,76.9,68.3,73.0,68.1,65.0,92,76,52,30.10,29.95,10,0,12,0.00
2013-9-20,82.8,72.7,68.8,72.1,67.6,63.8,94,85,66,29.98,29.80,10,0,10,2.28
2013-9-21,74.3,65.9,57.4,67.0,57.1,51.3,94,75,47,29.91,29.78,12,1,14,0.11
2013-9-22,78.8,62.9,51.8,58.2,52.8,49.0,91,72,44,29.97,29.88,9,0,9,0.00
2013-9-23,84.3,65.8,52.0,64.5,56.9,49.5,92,75,46,29.98,29.90,4,0,7,0.00
2013-9-24,73.4,67.1,59.9,68.2,63.6,56.7,93,88,83,29.93,29.81,3,0,9,0.00
2013-9-25,84.5,72.4,66.8,69.9,66.7,64.1,94,83,55,29.85,29.77,4,0,6,0.01
2013-9-26,85.5,71.0,61.6,68.8,63.9,59.9,95,80,52,30.00,29.85,4,0,6,0.01
2013-9-27,87.8,71.2,60.9,67.7,62.7,58.6,92,76,43,30.10,29.99,4,0,4,0.00
2013-9-28,84.4,70.0,60.1,63.7,59.8,57.5,91,72,43,30.14,30.02,12,0,12,0.00
2013-9-29,65.8,63.9,62.4,62.6,59.5,57.3,94,86,76,30.06,29.97,7,0,11,0.71
2013-9-30,67.4,64.7,62.7,64.1,62.4,61.0,95,92,88,30.01,29.95,6,0,9,0.02
2013-10-1,84.5,71.1,63.6,72.2,66.3,61.5,94,86,63,30.07,29.98,6,0,14,0.22
2013-10-2,83.0,72.9,67.1,70.9,67.7,65.3,95,85,62,30.10,30.02,9,0,10,0.01
2013-10-3,87.0,74.6,66.7,71.0,67.0,64.6,93,79,53,30.06,29.95,7,0,10,0.00
2013-10-4,86.6,74.4,67.1,73.5,68.5,64.4,92,83,62,30.06,29.97,6,0,10,0.00
2013-10-5,84.3,76.2,70.5,75.9,70.4,67.7,93,83,65,30.02,29.83,11,0,11,0.07
2013-10-6,74.5,61.2,53.7,70.4,53.6,45.6,94,77,50,29.99,29.82,12,0,12,2.80
2013-10-7,67.1,54.1,46.0,50.7,46.9,43.6,95,78,52,30.12,29.95,3,0,11,0.00
2013-10-8,73.2,57.9,47.5,54.5,49.1,45.0,92,74,45,30.17,30.08,6,0,6,0.01
2013-10-9,80.8,64.4,53.4,66.8,58.0,48.8,92,80,59,30.16,30.08,6,0,7,0.00
2013-10-10,82.2,66.3,57.3,65.2,60.1,55.6,95,82,50,30.16,30.01,5,0,5,0.00
2013-10-11,83.8,64.3,0.0,65.2,57.3,0.0,93,76,47,30.07,29.96,6,0,7,0.00
2013-10-12,76.2,65.9,58.2,70.1,62.4,56.2,94,89,74,30.12,29.99,4,0,4,0.10
2013-10-13,78.5,67.7,59.7,66.2,60.8,50.9,95,80,58,30.26,30.12,9,0,12,0.00
2013-10-14,80.5,65.6,54.4,64.2,56.5,47.7,82,73,50,30.24,30.07,4,0,4,0.00
2013-10-15,66.6,65.1,63.8,62.5,60.9,60.3,94,86,81,30.07,29.94,1,0,4,0.02
2013-10-16,65.1,59.1,55.0,63.6,56.8,52.0,95,92,85,30.03,29.94,9,0,11,0.32
2013-10-17,66.3,57.0,48.2,54.3,51.0,45.7,93,81,57,30.03,29.94,6,0,10,0.07
2013-10-18,72.9,55.7,44.2,53.1,48.3,42.3,95,78,43,30.09,29.95,5,0,5,0.00
2013-10-19,56.2,50.5,41.7,50.9,45.5,39.3,92,83,62,30.09,29.91,10,0,10,0.07
2013-10-20,68.7,50.4,37.9,46.8,41.7,35.7,93,75,38,30.14,30.01,7,0,10,0.01
2013-10-21,72.8,55.6,41.6,52.7,46.3,39.1,92,74,43,30.08,29.98,12,0,12,0.03
2013-10-22,66.0,54.3,48.6,50.5,44.7,40.2,91,72,43,30.08,29.89,9,0,10,0.01
2013-10-23,57.2,48.1,42.3,44.0,37.8,34.1,87,69,44,30.16,29.93,14,1,18,0.00
2013-10-24,55.8,48.3,37.7,43.4,38.2,29.4,89,69,49,30.40,30.13,15,1,16,0.00
2013-10-25,52.8,39.5,30.2,32.4,29.5,26.5,89,69,38,30.55,30.35,6,0,10,0.00
2013-10-26,61.9,48.1,33.5,46.1,37.7,29.9,88,69,45,30.35,30.09,10,0,12,0.00
2013-10-27,65.1,57.0,52.1,56.5,51.6,45.1,92,82,68,30.12,30.03,2,0,3,0.01
2013-10-28,69.8,59.1,52.5,57.8,54.3,50.2,92,85,63,30.24,30.06,4,0,6,0.00
2013-10-29,69.3,60.8,50.9,62.8,57.1,48.8,94,88,78,30.26,30.12,6,0,6,0.01
2013-10-30,74.2,66.7,60.0,65.4,61.0,57.4,92,82,70,30.18,29.99,10,0,13,0.00
2013-10-31,68.2,64.9,58.7,65.3,61.2,52.9,95,88,68,29.99,29.54,16,1,27,1.39
2013-11-1,69.0,55.2,48.8,53.5,50.2,46.9,94,85,48,29.83,29.72,4,0,8,0.01
2013-11-2,59.9,51.0,42.1,45.5,41.9,37.8,89,72,53,30.21,29.88,13,0,16,0.00
2013-11-3,62.7,45.0,35.3,44.2,37.0,33.2,97,76,39,30.33,30.19,6,0,7,0.00
2013-11-4,63.2,51.8,40.8,46.5,42.0,35.4,84,70,49,30.32,30.23,11,0,14,0.00
2013-11-5,70.3,57.1,50.1,52.8,45.9,42.1,80,67,52,30.34,30.16,9,0,9,0.00
2013-11-6,58.2,54.1,0.0,55.3,43.5,0.0,92,67,62,30.24,30.03,14,1,19,0.07
2013-11-7,53.7,43.1,36.2,39.9,33.9,29.0,90,72,42,30.41,30.23,16,1,16,0.00
2013-11-8,60.4,44.6,32.1,41.4,35.0,29.8,93,72,39,30.42,30.24,3,0,4,0.00
2013-11-9,62.2,49.0,38.5,42.6,38.5,34.2,89,69,44,30.29,30.19,7,0,13,0.00
2013-11-10,65.0,51.7,42.2,44.1,38.8,32.3,91,64,36,30.38,30.26,10,0,10,0.00
2013-11-11,68.4,51.9,35.6,45.7,37.9,31.5,87,62,30,30.32,30.17,6,0,6,0.00
2013-11-12,55.4,38.5,28.5,46.0,27.5,18.4,87,66,40,30.69,30.21,16,2,19,0.02
2013-11-13,47.5,33.5,24.2,25.0,21.9,16.7,82,65,32,30.75,30.46,5,0,6,0.00
2013-11-14,57.4,40.3,27.6,26.6,22.8,20.0,81,54,26,30.47,30.19,8,0,11,0.00
2013-11-15,54.2,47.2,36.0,50.2,41.1,24.3,91,80,55,30.20,30.04,7,0,11,0.05
2013-11-16,64.3,52.7,0.0,61.0,49.8,0.0,90,86,88,30.07,29.88,14,0,18,0.00
2013-11-17,73.6,64.6,51.2,68.0,60.9,42.2,94,88,71,29.97,29.67,20,1,22,0.52
2013-11-18,61.0,50.7,41.1,42.0,35.3,27.7,85,57,34,30.28,29.97,14,1,15,0.00
2013-11-19,49.5,42.6,35.6,30.7,28.5,25.5,75,58,41,30.33,30.18,3,0,8,0.00
2013-11-20,62.4,46.2,30.9,38.4,33.2,27.2,88,63,37,30.22,30.10,10,0,14,0.00
2013-11-21,65.8,56.1,47.0,56.2,48.7,37.8,93,77,59,30.24,30.14,10,0,13,0.29
2013-11-22,58.2,51.8,42.6,56.8,49.0,38.4,95,90,85,30.41,30.17,16,2,16,0.08
2013-11-23,43.9,37.7,26.1,38.3,28.3,15.7,86,70,38,30.62,30.37,21,2,25,0.02
2013-11-24,34.2,26.3,20.3,18.0,14.7,12.5,73,62,42,30.71,30.46,12,0,14,0.00
2013-11-25,38.5,33.1,30.0,31.8,24.7,15.4,92,73,47,30.47,30.17,6,0,7,0.20
2013-11-26,37.3,35.2,32.8,34.1,31.3,22.9,93,86,65,30.19,29.97,15,2,21,0.08
2013-11-27,32.8,25.8,19.7,23.1,13.8,10.8,81,61,44,30.43,30.12,16,2,20,0.00
2013-11-28,45.2,30.2,18.0,22.2,18.3,14.3,93,64,37,30.51,30.41,9,0,10,0.00
2013-11-29,55.4,38.2,26.0,31.5,25.9,20.5,81,63,36,30.60,30.46,3,0,4,0.00
2013-11-30,58.4,43.4,29.2,32.5,27.2,24.4,84,56,30,30.46,30.23,10,0,13,0.00
2013-12-1,58.2,50.3,45.7,42.1,35.9,29.6,75,58,52,30.23,29.94,7,0,7,0.00
2013-12-2,62.4,54.0,45.5,50.8,46.7,40.3,90,76,65,29.94,29.72,4,0,6,0.00
2013-12-3,62.7,55.5,48.7,55.9,51.7,46.3,96,87,72,29.77,29.70,9,0,9,0.00
2013-12-4,75.2,65.7,57.6,61.4,59.3,55.6,95,81,59,29.83,29.69,16,2,20,0.00
2013-12-5,67.1,47.0,32.0,63.2,43.0,29.7,92,86,76,30.19,29.82,15,2,17,0.56
2013-12-6,32.1,29.2,24.6,30.0,26.6,21.6,92,90,87,30.48,30.10,13,1,17,0.50
2013-12-7,27.5,24.5,20.8,23.9,21.0,16.8,90,86,83,30.62,30.36,0,0,0,0.00
2013-12-8,33.6,31.3,26.1,31.8,29.3,23.6,93,92,90,30.38,30.08,5,0,6,0.32
2013-12-9,32.9,30.9,28.7,29.5,26.5,24.4,92,84,76,30.33,30.16,8,0,11,0.02
2013-12-10,37.2,29.3,24.1,26.6,22.5,17.9,88,76,64,30.45,30.22,16,1,17,0.05
2013-12-11,42.6,30.1,21.6,31.8,24.2,18.9,91,79,58,30.62,30.41,11,0,13,0.03
2013-12-12,38.7,27.4,16.9,19.7,16.2,12.6,86,65,39,30.66,30.42,9,0,9,0.00
2013-12-13,45.0,36.8,23.7,34.4,25.3,17.1,90,65,43,30.43,29.98,4,0,7,0.36
2013-12-14,42.7,39.0,33.6,41.1,36.0,28.4,94,89,81,30.13,29.82,14,1,15,0.63
2013-12-15,35.2,31.8,28.4,28.9,26.9,25.1,89,82,75,30.29,30.13,11,1,14,0.00
2013-12-16,56.9,42.5,30.1,38.7,33.4,27.2,89,72,47,30.21,30.11,10,0,12,0.01
2013-12-17,54.4,42.3,31.3,40.0,33.0,26.9,89,71,48,30.33,30.14,12,0,14,0.00
2013-12-18,55.4,41.2,26.8,34.1,28.3,23.8,89,63,36,30.39,30.14,10,0,11,0.00
2013-12-19,59.9,52.0,42.2,48.9,42.6,33.8,77,70,60,30.17,29.97,13,1,16,0.00
2013-12-20,64.2,60.5,56.8,60.8,55.9,48.7,94,85,72,29.99,29.81,14,1,16,0.86
2013-12-21,73.1,65.7,50.4,64.6,60.7,48.5,94,84,70,29.81,29.46,27,5,29,1.55
2013-12-22,53.9,46.9,36.5,50.9,43.5,30.9,95,88,79,30.23,29.68,12,2,13,0.01
2013-12-23,36.6,32.4,27.2,31.2,25.6,22.0,81,76,65,30.52,30.23,11,3,11,0.00
2013-12-24,30.1,25.4,21.3,22.5,15.5,10.6,83,67,44,30.66,30.46,12,2,12,0.00
2013-12-25,47.6,31.5,19.5,28.1,20.7,14.2,82,66,37,30.47,30.33,9,1,9,0.02
2013-12-26,40.4,31.5,0.0,30.7,26.3,0.0,92,81,61,30.48,30.36,7,1,7,0.00
2013-12-27,55.6,37.3,24.6,32.7,26.7,21.4,89,68,38,30.50,30.38,7,1,7,0.00
2013-12-28,48.1,38.4,29.4,38.4,31.4,24.3,92,76,59,30.38,29.97,5,1,7,0.10
2013-12-29,54.0,42.6,31.8,45.1,37.2,25.9,97,82,61,30.22,29.96,13,2,13,0.24
2013-12-30,31.8,28.2,22.9,26.0,22.3,19.4,87,78,73,30.37,30.21,9,2,9,0.01
2013-12-31,48.7,30.4,19.7,30.2,23.4,16.8,91,77,46,30.49,30.35,6,1,6,0.00
2014-1-1,54.3,38.4,24.3,41.5,30.0,21.3,92,74,44,30.35,29.96,9,2,9,0.01
2014-1-2,44.8,29.8,18.5,41.4,23.8,10.7,91,78,64,30.47,29.91,19,5,19,0.12